Time;durP1;ratioP1;P1;durP2;ratioP2;P2;SDS_P1;SDS_P2;PMS_P1;PMS_P2;Temp;Humidity;BMP_temperature;BMP_pressure;BME280_temperature;BME280_humidity;BME280_pressure;Samples;Min_cycle;Max_cycle;Signal;HPM_P1;HPM_P2
2023/07/04 00:01:22;;;;;;;18.23;6.70;;;20.00;44.10;;;;;;5034697;28;20052;-55
2023/07/04 00:03:52;;;;;;;13.85;6.70;;;19.90;44.30;;;;;;5036983;28;20055;-53
2023/07/04 00:06:20;;;;;;;13.23;5.85;;;19.80;44.50;;;;;;5035946;28;20056;-53
2023/07/04 00:08:48;;;;;;;12.13;5.93;;;19.70;44.60;;;;;;5031198;28;20056;-58
2023/07/04 00:11:19;;;;;;;16.45;6.82;;;19.60;44.70;;;;;;5037658;28;20060;-55
2023/07/04 00:13:47;;;;;;;14.70;6.40;;;19.60;44.90;;;;;;5036343;28;20056;-55
2023/07/04 00:16:15;;;;;;;13.30;5.13;;;19.50;45.00;;;;;;5033733;28;20064;-53
2023/07/04 00:18:44;;;;;;;12.05;5.88;;;19.50;45.10;;;;;;5026996;28;20179;-55
2023/07/04 00:21:14;;;;;;;11.73;5.30;;;19.50;45.20;;;;;;5036017;28;20140;-52
2023/07/04 00:23:45;;;;;;;12.40;5.38;;;19.40;45.10;;;;;;5038106;28;20045;-50
2023/07/04 00:26:15;;;;;;;10.30;5.40;;;19.40;45.30;;;;;;5035286;28;20492;-53
2023/07/04 00:28:43;;;;;;;13.27;5.35;;;19.40;45.40;;;;;;5032164;28;20415;-52
2023/07/04 00:31:14;;;;;;;11.23;5.15;;;19.40;45.60;;;;;;5034393;28;20049;-54
2023/07/04 00:33:41;;;;;;;10.43;5.05;;;19.40;45.60;;;;;;5034370;28;20068;-55
2023/07/04 00:36:11;;;;;;;11.90;4.75;;;19.40;45.50;;;;;;5036671;28;20057;-54
2023/07/04 00:38:41;;;;;;;14.65;5.53;;;19.40;45.50;;;;;;5036853;28;20055;-57
2023/07/04 00:41:13;;;;;;;10.88;4.50;;;19.50;45.50;;;;;;5031255;28;20056;-54
2023/07/04 00:43:57;;;;;;;14.10;4.72;;;19.50;45.50;;;;;;5034701;28;20048;-56
2023/07/04 00:46:45;;;;;;;14.38;5.60;;;19.40;45.50;;;;;;5034961;28;20505;-54
2023/07/04 00:49:18;;;;;;;16.33;5.72;;;19.40;45.50;;;;;;5032782;28;20057;-58
2023/07/04 00:51:50;;;;;;;14.98;5.68;;;19.40;45.60;;;;;;5028737;28;20421;-57
2023/07/04 00:54:19;;;;;;;10.50;4.85;;;19.40;45.60;;;;;;5034955;28;20060;-53
2023/07/04 00:56:47;;;;;;;12.68;4.78;;;19.30;45.60;;;;;;5035742;28;20056;-51
2023/07/04 00:59:15;;;;;;;13.77;5.45;;;19.30;45.60;;;;;;5032144;28;20068;-56
2023/07/04 01:01:43;;;;;;;13.23;4.28;;;19.30;45.80;;;;;;5036382;28;20059;-56
2023/07/04 01:04:10;;;;;;;12.07;4.78;;;19.20;45.80;;;;;;5022708;22;20054;-57
2023/07/04 01:06:48;;;;;;;13.82;4.85;;;19.30;45.90;;;;;;4975836;28;20054;-55
2023/07/04 01:09:18;;;;;;;12.48;4.35;;;19.20;46.00;;;;;;4979622;28;20061;-59
2023/07/04 01:11:49;;;;;;;11.82;4.25;;;19.20;45.90;;;;;;4976666;28;20525;-56
2023/07/04 01:14:24;;;;;;;10.45;4.07;;;19.20;45.90;;;;;;4979648;28;20054;-58
2023/07/04 01:16:52;;;;;;;12.55;4.80;;;19.20;46.00;;;;;;4980186;28;20580;-58
2023/07/04 01:19:26;;;;;;;10.70;3.80;;;19.20;46.00;;;;;;4980336;28;20062;-59
2023/07/04 01:22:09;;;;;;;11.13;4.25;;;19.20;46.00;;;;;;4973848;28;20050;-57
2023/07/04 01:24:45;;;;;;;16.13;4.13;;;19.20;46.10;;;;;;4978906;28;20059;-58
2023/07/04 01:27:15;;;;;;;11.15;4.68;;;19.20;46.10;;;;;;4979502;28;20062;-57
2023/07/04 01:29:44;;;;;;;13.57;4.20;;;19.20;46.10;;;;;;4979908;28;20065;-58
2023/07/04 01:32:11;;;;;;;17.30;5.22;;;19.20;46.10;;;;;;4979435;28;20411;-59
2023/07/04 01:34:38;;;;;;;11.20;4.63;;;19.20;46.10;;;;;;4974597;28;20058;-59
2023/07/04 01:37:06;;;;;;;11.18;4.22;;;19.20;46.10;;;;;;4980275;28;20054;-58
2023/07/04 01:39:34;;;;;;;9.95;4.05;;;19.20;46.20;;;;;;4981409;28;20395;-58
2023/07/04 01:42:04;;;;;;;9.48;3.88;;;19.20;46.20;;;;;;4984209;28;20050;-57
2023/07/04 01:44:34;;;;;;;8.82;3.67;;;19.20;46.30;;;;;;4982215;28;20058;-59
2023/07/04 01:47:02;;;;;;;8.95;3.80;;;19.20;46.40;;;;;;4983337;28;20054;-58
2023/07/04 01:49:29;;;;;;;8.25;3.65;;;19.10;46.30;;;;;;4983022;28;20057;-59
2023/07/04 01:51:57;;;;;;;9.43;3.70;;;19.20;46.40;;;;;;4980741;28;20046;-59
2023/07/04 01:54:24;;;;;;;11.05;3.85;;;19.10;46.40;;;;;;4977865;28;20046;-60
2023/07/04 01:56:52;;;;;;;10.18;3.67;;;19.10;46.50;;;;;;4983229;28;20065;-58
2023/07/04 01:59:20;;;;;;;8.68;3.55;;;19.10;46.60;;;;;;4981398;28;20058;-55
2023/07/04 02:01:49;;;;;;;11.00;3.58;;;19.10;46.60;;;;;;4980760;28;20057;-59
2023/07/04 02:04:16;;;;;;;9.73;3.63;;;19.10;46.60;;;;;;4983011;28;20081;-59
2023/07/04 02:06:44;;;;;;;9.23;3.20;;;19.10;46.60;;;;;;4981759;28;20546;-59
2023/07/04 02:09:11;;;;;;;10.60;3.70;;;19.10;46.60;;;;;;4983205;28;20058;-57
2023/07/04 02:11:38;;;;;;;10.15;3.67;;;19.10;46.60;;;;;;4975905;28;20054;-57
2023/07/04 02:14:07;;;;;;;11.68;3.50;;;19.10;46.60;;;;;;4981342;28;20058;-57
2023/07/04 02:16:34;;;;;;;7.25;3.45;;;19.10;46.70;;;;;;4980320;28;20058;-59
2023/07/04 02:19:02;;;;;;;12.23;3.72;;;19.00;46.60;;;;;;4979486;28;20069;-57
2023/07/04 02:21:30;;;;;;;10.82;3.75;;;19.00;46.60;;;;;;4982563;28;20076;-58
2023/07/04 02:23:57;;;;;;;10.68;3.85;;;19.00;46.60;;;;;;4984140;28;20057;-59
2023/07/04 02:26:24;;;;;;;11.00;3.45;;;19.00;46.70;;;;;;4981218;28;20631;-58
2023/07/04 02:28:51;;;;;;;13.10;3.90;;;19.00;46.70;;;;;;4978519;28;20065;-58
2023/07/04 02:31:19;;;;;;;10.77;3.70;;;19.00;46.70;;;;;;4982207;28;20054;-58
2023/07/04 02:33:46;;;;;;;9.68;2.97;;;19.00;46.80;;;;;;4982719;28;20047;-59
2023/07/04 02:36:15;;;;;;;13.02;3.70;;;19.00;46.90;;;;;;4978211;28;20065;-59
2023/07/04 02:38:42;;;;;;;7.47;3.22;;;19.00;46.90;;;;;;4974465;28;20061;-58
2023/07/04 02:41:10;;;;;;;11.68;3.30;;;19.00;46.90;;;;;;4979161;28;20057;-57
2023/07/04 02:43:38;;;;;;;12.77;3.58;;;19.00;46.90;;;;;;4981239;28;20061;-58
2023/07/04 02:46:07;;;;;;;11.05;3.13;;;18.90;46.90;;;;;;4981947;28;20062;-57
2023/07/04 02:48:35;;;;;;;8.50;3.75;;;18.90;46.90;;;;;;4978879;28;20057;-58
2023/07/04 02:51:03;;;;;;;10.20;3.35;;;18.90;47.00;;;;;;4979181;28;20053;-58
2023/07/04 02:53:31;;;;;;;9.45;2.95;;;18.90;47.00;;;;;;4979093;28;20061;-57
2023/07/04 02:55:59;;;;;;;8.77;3.17;;;18.90;47.10;;;;;;4977676;28;20417;-58
2023/07/04 02:58:26;;;;;;;11.88;3.25;;;18.90;47.10;;;;;;4981987;28;20058;-57
2023/07/04 03:00:53;;;;;;;8.18;3.10;;;18.80;47.10;;;;;;4981146;28;20062;-58
2023/07/04 03:03:21;;;;;;;5.20;2.60;;;18.80;47.20;;;;;;4983827;28;20065;-58
2023/07/04 03:05:49;;;;;;;8.43;2.92;;;18.80;47.30;;;;;;4981818;28;20520;-58
2023/07/04 03:08:16;;;;;;;7.55;2.83;;;18.80;47.30;;;;;;4983522;28;20065;-57
2023/07/04 03:10:46;;;;;;;8.57;2.72;;;18.80;47.30;;;;;;4984396;28;20058;-58
2023/07/04 03:13:14;;;;;;;10.13;2.97;;;18.80;47.40;;;;;;4983776;28;20054;-58
2023/07/04 03:15:42;;;;;;;8.50;2.85;;;18.80;47.40;;;;;;4963198;28;20050;-58
2023/07/04 03:18:09;;;;;;;7.57;2.50;;;18.70;47.40;;;;;;4965296;28;20150;-57
2023/07/04 03:20:36;;;;;;;9.80;3.33;;;18.70;47.40;;;;;;4962206;28;20062;-58
2023/07/04 03:23:04;;;;;;;8.27;3.03;;;18.70;47.50;;;;;;4964614;28;20063;-58
2023/07/04 03:25:31;;;;;;;7.32;2.63;;;18.70;47.50;;;;;;4964179;28;20051;-59
2023/07/04 03:28:00;;;;;;;11.07;2.95;;;18.70;47.50;;;;;;4963086;28;20055;-59
2023/07/04 03:30:27;;;;;;;8.23;2.58;;;18.70;47.50;;;;;;4963378;28;20490;-58
2023/07/04 03:32:54;;;;;;;7.47;2.30;;;18.70;47.60;;;;;;4964381;28;20059;-58
2023/07/04 03:35:22;;;;;;;8.82;2.78;;;18.70;47.60;;;;;;4964251;28;20058;-56
2023/07/04 03:37:49;;;;;;;5.43;2.10;;;18.70;47.60;;;;;;4964326;28;20054;-58
2023/07/04 03:40:16;;;;;;;9.23;2.67;;;18.60;47.70;;;;;;4963516;28;20067;-57
2023/07/04 03:42:44;;;;;;;8.15;2.60;;;18.60;47.70;;;;;;4964112;28;20055;-58
2023/07/04 03:45:12;;;;;;;6.95;2.50;;;18.60;47.70;;;;;;4964683;28;20055;-58
2023/07/04 03:47:40;;;;;;;8.52;2.53;;;18.70;47.80;;;;;;4964003;28;20050;-58
2023/07/04 03:50:08;;;;;;;10.95;2.97;;;18.60;47.70;;;;;;4962949;28;20419;-56
2023/07/04 03:52:35;;;;;;;8.18;2.40;;;18.60;47.80;;;;;;4962210;28;20058;-56
2023/07/04 03:55:02;;;;;;;9.27;2.80;;;18.60;47.70;;;;;;4962124;28;20396;-58
2023/07/04 03:57:30;;;;;;;7.35;2.30;;;18.60;47.70;;;;;;4960236;28;20058;-58
2023/07/04 03:59:57;;;;;;;9.05;2.53;;;18.60;47.70;;;;;;4961900;28;20043;-57
2023/07/04 04:02:26;;;;;;;6.15;2.40;;;18.60;47.80;;;;;;4961190;28;20503;-58
2023/07/04 04:04:53;;;;;;;7.75;2.65;;;18.60;47.90;;;;;;4959960;28;20061;-58
2023/07/04 04:07:20;;;;;;;8.02;2.33;;;18.60;47.90;;;;;;4962968;28;20059;-58
2023/07/04 04:09:47;;;;;;;7.03;2.35;;;18.60;47.90;;;;;;4964338;28;20051;-58
2023/07/04 04:12:15;;;;;;;15.10;3.80;;;18.60;47.90;;;;;;4962039;28;20063;-57
2023/07/04 04:14:43;;;;;;;7.95;2.95;;;18.60;47.90;;;;;;4961796;28;20054;-57
2023/07/04 04:17:11;;;;;;;8.27;2.80;;;18.60;47.90;;;;;;4958514;28;20122;-58
2023/07/04 04:19:40;;;;;;;8.48;2.47;;;18.50;47.90;;;;;;4959754;28;20058;-58
2023/07/04 04:22:07;;;;;;;9.13;2.67;;;18.50;47.90;;;;;;4961984;28;20539;-57
2023/07/04 04:24:36;;;;;;;7.70;2.30;;;18.50;47.90;;;;;;4963994;28;20077;-57
2023/07/04 04:27:08;;;;;;;9.20;3.08;;;18.50;47.90;;;;;;4961658;28;20055;-57
2023/07/04 04:29:36;;;;;;;7.85;2.58;;;18.50;47.90;;;;;;4961480;28;20061;-58
2023/07/04 04:32:03;;;;;;;12.45;2.95;;;18.50;47.90;;;;;;4962636;28;20069;-57
2023/07/04 04:34:31;;;;;;;9.18;2.65;;;18.50;47.90;;;;;;4962804;28;20506;-55
2023/07/04 04:37:00;;;;;;;10.48;3.22;;;18.50;48.00;;;;;;4962678;28;20061;-56
2023/07/04 04:39:28;;;;;;;9.15;2.72;;;18.50;48.00;;;;;;4963062;28;20058;-56
2023/07/04 04:41:55;;;;;;;7.90;3.05;;;18.50;48.00;;;;;;4960637;28;20066;-52
2023/07/04 04:44:22;;;;;;;9.30;2.80;;;18.60;48.10;;;;;;4960549;28;20055;-56
2023/07/04 04:46:50;;;;;;;14.93;2.75;;;18.50;48.10;;;;;;4960752;28;20070;-57
2023/07/04 04:49:18;;;;;;;8.40;2.83;;;18.50;48.10;;;;;;4960995;28;20054;-58
2023/07/04 04:51:45;;;;;;;8.68;2.30;;;18.60;48.20;;;;;;4959516;28;20051;-57
2023/07/04 04:54:14;;;;;;;13.10;3.15;;;18.60;48.20;;;;;;4960695;28;20058;-57
2023/07/04 04:56:44;;;;;;;12.43;2.72;;;18.60;48.20;;;;;;4962731;28;20054;-57
2023/07/04 04:59:11;;;;;;;11.13;3.35;;;18.60;48.20;;;;;;4963175;28;20070;-57
2023/07/04 05:01:39;;;;;;;6.88;2.47;;;18.60;48.30;;;;;;4961757;28;20430;-56
2023/07/04 05:04:06;;;;;;;7.97;2.58;;;18.60;48.30;;;;;;4960487;28;20499;-58
2023/07/04 05:06:34;;;;;;;9.80;2.95;;;18.60;48.40;;;;;;4960846;28;20062;-57
2023/07/04 05:09:01;;;;;;;10.75;2.78;;;18.60;48.40;;;;;;4962254;28;20055;-56
2023/07/04 05:11:32;;;;;;;18.02;3.75;;;18.60;48.40;;;;;;4966051;28;20422;-57
2023/07/04 05:14:00;;;;;;;9.27;2.85;;;18.60;48.60;;;;;;4967314;28;20402;-57
2023/07/04 05:16:27;;;;;;;5.32;2.20;;;18.60;48.50;;;;;;4964495;28;20067;-56
2023/07/04 05:18:54;;;;;;;7.05;1.80;;;18.60;48.50;;;;;;4966392;28;20059;-56
2023/07/04 05:21:23;;;;;;;9.60;2.65;;;18.70;48.60;;;;;;4965319;28;20506;-57
2023/07/04 05:23:52;;;;;;;6.90;2.60;;;18.70;48.60;;;;;;4966445;28;20399;-54
2023/07/04 05:26:21;;;;;;;6.38;2.28;;;18.70;48.60;;;;;;4962962;28;20062;-55
2023/07/04 05:28:51;;;;;;;14.07;3.78;;;18.70;48.70;;;;;;4966178;28;20577;-56
2023/07/04 05:31:21;;;;;;;11.65;3.58;;;18.70;48.70;;;;;;4964651;28;20059;-56
2023/07/04 05:33:49;;;;;;;10.85;2.85;;;18.70;48.70;;;;;;4964868;28;20066;-57
2023/07/04 05:36:18;;;;;;;12.32;2.67;;;18.70;48.80;;;;;;4962003;28;20091;-57
2023/07/04 05:38:47;;;;;;;8.05;2.40;;;18.70;48.80;;;;;;4964178;28;20074;-58
2023/07/04 05:41:17;;;;;;;9.18;2.40;;;18.80;48.80;;;;;;4960667;28;21496;-56
2023/07/04 05:43:46;;;;;;;14.38;3.60;;;18.80;48.80;;;;;;4961791;28;20055;-58
2023/07/04 05:46:18;;;;;;;12.77;2.47;;;18.80;48.80;;;;;;4964084;28;20055;-57
2023/07/04 05:48:47;;;;;;;9.73;2.17;;;18.80;48.80;;;;;;4964957;28;20067;-58
2023/07/04 05:51:16;;;;;;;7.32;2.40;;;18.90;48.90;;;;;;4960890;28;20498;-59
2023/07/04 05:53:47;;;;;;;7.32;2.20;;;18.90;48.90;;;;;;4965458;28;20058;-55
2023/07/04 05:56:16;;;;;;;8.80;2.58;;;18.90;49.00;;;;;;4964153;28;20059;-58
2023/07/04 05:58:47;;;;;;;10.90;2.45;;;18.90;48.90;;;;;;4966019;28;20050;-57
2023/07/04 06:01:21;;;;;;;7.68;3.00;;;19.00;48.90;;;;;;4962106;28;20069;-57
2023/07/04 06:03:49;;;;;;;8.73;2.63;;;19.00;48.90;;;;;;4963966;28;20415;-57
2023/07/04 06:06:18;;;;;;;10.27;2.88;;;19.00;48.90;;;;;;4965332;28;20059;-55
2023/07/04 06:08:45;;;;;;;11.18;2.45;;;19.10;48.90;;;;;;4965751;28;20055;-59
2023/07/04 06:11:13;;;;;;;8.60;2.40;;;19.10;49.00;;;;;;4962866;28;20510;-57
2023/07/04 06:13:41;;;;;;;9.48;2.63;;;19.10;48.90;;;;;;4963718;28;20051;-58
2023/07/04 06:16:09;;;;;;;11.73;2.60;;;19.10;48.90;;;;;;4965568;28;20062;-55
2023/07/04 06:18:37;;;;;;;9.00;2.60;;;19.20;49.00;;;;;;4965891;28;20062;-57
2023/07/04 06:21:09;;;;;;;5.97;2.55;;;19.20;48.90;;;;;;4964245;28;20063;-58
2023/07/04 06:23:37;;;;;;;10.45;2.38;;;19.20;48.90;;;;;;4962890;28;20062;-58
2023/07/04 06:26:05;;;;;;;13.98;3.20;;;19.30;48.90;;;;;;4964547;28;20422;-57
2023/07/04 06:28:32;;;;;;;10.45;3.03;;;19.30;48.90;;;;;;4965063;28;20050;-57
2023/07/04 06:31:00;;;;;;;11.15;3.28;;;19.30;48.80;;;;;;4960404;28;20065;-58
2023/07/04 06:33:27;;;;;;;8.70;2.60;;;19.40;48.70;;;;;;4960263;28;20058;-58
2023/07/04 06:35:56;;;;;;;10.57;2.80;;;19.40;48.60;;;;;;4961685;28;20407;-58
2023/07/04 06:38:24;;;;;;;10.25;2.35;;;19.40;48.50;;;;;;4961770;28;20051;-58
2023/07/04 06:40:57;;;;;;;9.70;2.90;;;19.50;48.50;;;;;;4963256;28;20135;-50
2023/07/04 06:43:24;;;;;;;9.25;2.75;;;19.50;48.30;;;;;;4963712;28;20058;-58
2023/07/04 06:45:52;;;;;;;6.05;2.25;;;19.50;48.30;;;;;;4964495;28;20509;-57
2023/07/04 06:48:23;;;;;;;8.10;2.88;;;19.50;48.30;;;;;;4964843;28;20062;-58
2023/07/04 06:50:59;;;;;;;10.70;2.50;;;19.60;48.30;;;;;;4962225;28;20051;-58
2023/07/04 06:53:28;;;;;;;8.50;2.55;;;19.60;48.10;;;;;;4959684;28;20062;-57
2023/07/04 06:56:04;;;;;;;10.63;2.53;;;19.60;48.00;;;;;;4965643;28;20053;-58
2023/07/04 06:58:32;;;;;;;6.35;2.20;;;19.70;48.00;;;;;;4960878;28;20050;-56
2023/07/04 07:01:01;;;;;;;6.07;2.30;;;19.70;47.90;;;;;;4962303;28;20527;-54
2023/07/04 07:03:29;;;;;;;10.70;2.45;;;19.70;47.80;;;;;;4961695;28;20069;-57
2023/07/04 07:05:58;;;;;;;10.85;2.83;;;19.80;47.80;;;;;;4961935;28;20499;-56
2023/07/04 07:08:25;;;;;;;8.68;2.70;;;19.80;47.80;;;;;;4962097;28;20055;-55
2023/07/04 07:10:55;;;;;;;9.13;2.65;;;19.80;47.70;;;;;;4962277;28;20051;-57
2023/07/04 07:13:23;;;;;;;5.97;2.17;;;19.90;47.80;;;;;;4961334;28;20058;-57
2023/07/04 07:15:50;;;;;;;7.60;2.80;;;19.90;47.80;;;;;;4960335;28;20057;-54
2023/07/04 07:18:17;;;;;;;8.95;2.83;;;20.00;48.10;;;;;;4964661;28;20399;-55
2023/07/04 07:20:45;;;;;;;8.50;3.00;;;20.00;47.50;;;;;;4960110;28;21123;-49
2023/07/04 07:23:13;;;;;;;8.93;2.60;;;20.10;47.50;;;;;;4964091;28;20066;-56
2023/07/04 07:25:40;;;;;;;12.20;2.80;;;20.10;47.30;;;;;;4963849;28;20059;-59
2023/07/04 07:28:08;;;;;;;13.05;2.70;;;20.10;47.20;;;;;;4964845;28;20503;-55
2023/07/04 07:30:35;;;;;;;7.18;2.50;;;20.20;47.10;;;;;;4961594;28;20050;-56
2023/07/04 07:33:02;;;;;;;4.82;1.98;;;20.20;47.10;;;;;;4961317;28;20407;-54
2023/07/04 07:35:31;;;;;;;9.13;2.63;;;20.20;47.10;;;;;;4958412;28;20050;-51
2023/07/04 07:37:58;;;;;;;7.35;2.47;;;20.20;46.90;;;;;;4958382;28;20058;-51
2023/07/04 07:40:27;;;;;;;10.68;2.88;;;20.30;46.80;;;;;;4959672;28;20070;-55
2023/07/04 07:42:54;;;;;;;7.30;2.55;;;20.30;46.60;;;;;;4960317;28;20059;-53
2023/07/04 07:45:22;;;;;;;6.03;2.58;;;20.30;46.60;;;;;;4958901;28;20058;-57
2023/07/04 07:47:49;;;;;;;8.45;2.83;;;20.30;46.60;;;;;;4960721;28;20051;-52
2023/07/04 07:50:16;;;;;;;9.43;2.55;;;20.30;46.70;;;;;;4960933;28;21265;-53
2023/07/04 07:52:43;;;;;;;8.52;2.47;;;20.40;46.70;;;;;;4958373;28;20502;-53
2023/07/04 07:55:10;;;;;;;10.77;3.30;;;20.40;46.70;;;;;;4963207;28;20059;-54
2023/07/04 07:57:39;;;;;;;9.45;2.58;;;20.50;46.80;;;;;;4957356;28;20523;-55
2023/07/04 08:00:07;;;;;;;8.32;3.15;;;20.50;46.80;;;;;;4956993;28;20058;-56
2023/07/04 08:02:35;;;;;;;10.45;2.90;;;20.50;46.70;;;;;;4961119;28;20061;-56
2023/07/04 08:05:02;;;;;;;6.15;2.38;;;20.60;46.70;;;;;;4959904;28;20498;-57
2023/07/04 08:07:29;;;;;;;10.02;2.55;;;20.60;46.50;;;;;;4958856;28;20059;-57
2023/07/04 08:09:58;;;;;;;8.32;2.47;;;20.60;46.50;;;;;;4962757;28;20061;-52
2023/07/04 08:12:25;;;;;;;10.10;2.38;;;20.70;46.00;;;;;;4961911;28;20062;-57
2023/07/04 08:14:54;;;;;;;5.53;2.00;;;20.80;45.90;;;;;;4955483;28;20075;-58
2023/07/04 08:17:21;;;;;;;9.93;2.60;;;20.80;45.90;;;;;;4959141;28;20058;-59
2023/07/04 08:19:49;;;;;;;6.38;2.17;;;20.80;45.50;;;;;;4959258;28;20065;-57
2023/07/04 08:22:16;;;;;;;8.68;2.10;;;20.90;45.50;;;;;;4963902;28;20558;-58
2023/07/04 08:24:43;;;;;;;10.32;2.60;;;20.90;45.30;;;;;;4959216;28;20055;-55
2023/07/04 08:27:11;;;;;;;4.95;2.38;;;20.90;44.80;;;;;;4957855;28;20058;-57
2023/07/04 08:29:38;;;;;;;8.45;2.35;;;20.90;45.30;;;;;;4962001;28;20117;-53
2023/07/04 08:32:10;;;;;;;7.93;2.45;;;21.00;44.90;;;;;;4958547;28;20054;-57
2023/07/04 08:34:37;;;;;;;7.93;2.67;;;21.00;44.70;;;;;;4960532;28;20529;-57
2023/07/04 08:37:05;;;;;;;5.20;2.05;;;21.00;44.50;;;;;;4960544;28;20073;-58
2023/07/04 08:39:32;;;;;;;5.93;2.38;;;21.00;44.50;;;;;;4961569;28;20058;-58
2023/07/04 08:42:03;;;;;;;9.68;2.75;;;21.10;44.70;;;;;;4956579;28;20624;-57
2023/07/04 08:44:34;;;;;;;9.30;2.78;;;21.20;44.70;;;;;;4956829;28;20059;-51
2023/07/04 08:47:02;;;;;;;5.28;2.28;;;21.20;44.30;;;;;;4958903;28;20578;-58
2023/07/04 08:49:38;;;;;;;6.63;2.25;;;21.20;44.30;;;;;;4961133;28;20487;-56
2023/07/04 08:52:10;;;;;;;7.05;2.60;;;21.20;44.20;;;;;;4958945;28;20057;-55
2023/07/04 08:54:38;;;;;;;6.45;2.20;;;21.30;44.10;;;;;;4958601;28;20058;-57
2023/07/04 08:57:19;;;;;;;5.00;2.35;;;21.30;44.00;;;;;;4958557;28;20489;-57
2023/07/04 08:59:51;;;;;;;7.22;2.58;;;21.40;43.90;;;;;;4957426;28;20411;-58
2023/07/04 09:02:32;;;;;;;7.57;2.42;;;21.40;43.60;;;;;;4956711;28;20063;-58
2023/07/04 09:05:11;;;;;;;8.05;2.92;;;21.40;43.40;;;;;;4958974;28;20068;-52
2023/07/04 09:07:45;;;;;;;8.02;2.83;;;21.50;43.20;;;;;;4957382;28;20059;-58
2023/07/04 09:10:24;;;;;;;7.53;2.53;;;21.50;42.90;;;;;;4961360;28;20438;-58
2023/07/04 09:12:52;;;;;;;7.20;2.85;;;21.50;42.80;;;;;;4958683;28;20066;-57
2023/07/04 09:15:25;;;;;;;6.78;2.45;;;21.50;42.80;;;;;;4958956;28;20051;-59
2023/07/04 09:18:00;;;;;;;4.75;2.58;;;21.60;43.20;;;;;;4959383;28;20059;-57
2023/07/04 09:20:32;;;;;;;15.25;3.30;;;21.60;43.00;;;;;;4958854;28;20058;-58
2023/07/04 09:23:02;;;;;;;11.00;2.45;;;21.60;42.90;;;;;;4955466;28;20055;-58
2023/07/04 09:25:29;;;;;;;7.57;2.80;;;21.70;43.00;;;;;;4958894;28;20342;-57
2023/07/04 09:27:56;;;;;;;6.25;2.60;;;21.70;43.20;;;;;;4960726;28;20051;-56
2023/07/04 09:30:23;;;;;;;7.15;2.53;;;21.80;43.10;;;;;;4958905;28;20494;-57
2023/07/04 09:32:51;;;;;;;7.70;2.83;;;21.80;42.90;;;;;;4962050;28;20066;-58
2023/07/04 09:35:19;;;;;;;11.32;2.97;;;21.90;42.80;;;;;;4957830;28;20102;-59
2023/07/04 09:37:58;;;;;;;6.82;2.58;;;21.90;42.50;;;;;;4959066;28;20055;-59
2023/07/04 09:40:43;;;;;;;8.43;2.90;;;21.90;42.30;;;;;;4958247;28;20439;-59
2023/07/04 09:43:12;;;;;;;7.30;3.30;;;22.00;42.10;;;;;;4957738;28;20055;-58
2023/07/04 09:45:40;;;;;;;7.88;3.00;;;22.00;42.00;;;;;;4960535;28;20951;-56
2023/07/04 09:48:09;;;;;;;9.40;3.72;;;22.10;41.70;;;;;;4960245;28;20503;-58
2023/07/04 09:50:37;;;;;;;6.55;3.25;;;22.10;41.60;;;;;;4956130;28;20054;-57
2023/07/04 09:53:09;;;;;;;10.40;3.20;;;22.10;41.30;;;;;;4961565;28;20054;-58
2023/07/04 09:55:38;;;;;;;6.90;3.03;;;22.20;41.30;;;;;;4961294;28;20042;-58
2023/07/04 09:58:16;;;;;;;9.10;3.60;;;22.20;41.40;;;;;;4961610;28;20062;-58
2023/07/04 10:00:46;;;;;;;11.00;4.40;;;22.20;41.10;;;;;;4964097;28;20503;-56
2023/07/04 10:03:17;;;;;;;8.23;3.30;;;22.30;41.10;;;;;;4961366;28;20066;-58
2023/07/04 10:05:49;;;;;;;9.70;3.55;;;22.30;41.30;;;;;;4960746;28;20057;-57
2023/07/04 10:08:18;;;;;;;9.80;3.50;;;22.40;40.80;;;;;;4962942;28;20070;-58
2023/07/04 10:10:52;;;;;;;10.73;3.65;;;22.40;40.30;;;;;;4963767;28;20057;-55
2023/07/04 10:13:20;;;;;;;;;;;22.50;40.00;;;;;;4964238;28;20502;-58
2023/07/04 10:15:49;;;;;;;6.68;3.38;;;22.60;40.80;;;;;;4961802;28;19930;-57
2023/07/04 10:18:29;;;;;;;9.20;4.20;;;22.60;40.60;;;;;;4964753;28;20065;-57
2023/07/04 10:20:58;;;;;;;8.93;3.55;;;22.70;39.60;;;;;;4961041;28;20491;-56
2023/07/04 10:23:29;;;;;;;8.75;3.67;;;22.70;40.30;;;;;;4963932;28;20055;-56
2023/07/04 10:25:58;;;;;;;9.90;4.03;;;22.70;40.10;;;;;;4962360;28;20054;-56
2023/07/04 10:28:28;;;;;;;6.03;3.65;;;22.70;40.40;;;;;;4965783;28;20058;-59
2023/07/04 10:30:59;;;;;;;7.80;3.47;;;22.80;40.70;;;;;;4961761;28;20062;-59
2023/07/04 10:33:37;;;;;;;12.13;4.05;;;22.80;40.40;;;;;;4963028;28;20594;-54
2023/07/04 10:36:06;;;;;;;35.00;6.93;;;22.90;40.40;;;;;;4959894;28;20065;-58
2023/07/04 10:38:41;;;;;;;11.90;4.82;;;22.90;40.20;;;;;;4963529;28;20053;-58
2023/07/04 10:41:17;;;;;;;15.00;4.15;;;23.00;39.30;;;;;;4960782;28;20059;-54
2023/07/04 10:43:51;;;;;;;7.65;3.45;;;23.10;39.70;;;;;;4963088;28;20081;-56
2023/07/04 10:46:23;;;;;;;9.35;3.90;;;23.10;39.70;;;;;;4962151;28;20054;-59
2023/07/04 10:48:57;;;;;;;7.50;3.60;;;23.20;39.40;;;;;;4959802;28;20054;-55
2023/07/04 10:51:30;;;;;;;8.50;3.70;;;23.30;39.50;;;;;;4960154;28;20047;-58
2023/07/04 10:53:59;;;;;;;6.03;3.85;;;23.40;39.30;;;;;;4961356;28;20054;-56
2023/07/04 10:56:31;;;;;;;9.18;4.40;;;23.50;39.30;;;;;;4958728;28;20047;-54
2023/07/04 10:59:06;;;;;;;8.57;4.32;;;23.50;39.00;;;;;;4962726;28;20058;-56
2023/07/04 11:01:38;;;;;;;11.80;4.60;;;23.60;37.50;;;;;;4961300;28;20763;-58
2023/07/04 11:04:11;;;;;;;11.18;4.50;;;23.60;38.20;;;;;;4959768;28;20073;-59
2023/07/04 11:06:43;;;;;;;7.13;3.72;;;23.60;38.50;;;;;;4960505;28;20051;-59
2023/07/04 11:09:15;;;;;;;10.98;4.57;;;23.60;38.50;;;;;;4961086;28;20058;-58
2023/07/04 11:11:45;;;;;;;9.98;3.72;;;23.60;39.00;;;;;;4959681;28;20059;-58
2023/07/04 11:14:16;;;;;;;6.93;4.30;;;23.70;39.00;;;;;;4962089;28;20062;-56
2023/07/04 11:16:45;;;;;;;9.00;4.45;;;23.70;38.70;;;;;;4962448;28;20058;-58
2023/07/04 11:19:17;;;;;;;7.68;4.32;;;23.70;38.90;;;;;;4961947;28;20054;-58
2023/07/04 11:22:13;;;;;;;8.75;4.53;;;23.80;38.40;;;;;;4960559;28;20062;-58
2023/07/04 11:24:45;;;;;;;7.35;4.82;;;23.80;38.50;;;;;;4960665;28;20411;-54
2023/07/04 11:27:14;;;;;;;12.75;5.13;;;23.80;38.10;;;;;;4960489;28;20492;-63
2023/07/04 11:29:52;;;;;;;10.93;5.45;;;23.80;38.20;;;;;;4960546;28;20065;-58
2023/07/04 11:32:25;;;;;;;11.60;5.28;;;24.00;38.40;;;;;;4960463;28;20062;-57
2023/07/04 11:34:54;;;;;;;12.02;5.85;;;24.00;38.10;;;;;;4961712;28;20051;-55
2023/07/04 11:37:31;;;;;;;15.60;6.35;;;24.00;37.90;;;;;;4959076;28;20438;-61
2023/07/04 11:40:04;;;;;;;12.02;5.28;;;24.10;37.70;;;;;;4958134;28;20061;-58
2023/07/04 11:42:39;;;;;;;9.73;5.53;;;24.20;37.20;;;;;;4960491;28;20066;-58
2023/07/04 11:45:11;;;;;;;14.57;5.88;;;24.20;37.50;;;;;;4961575;28;20063;-57
2023/07/04 11:47:43;;;;;;;10.55;5.53;;;24.30;37.50;;;;;;4958262;28;20511;-51
2023/07/04 11:50:16;;;;;;;10.52;5.13;;;24.40;37.00;;;;;;4958173;28;20055;-58
2023/07/04 11:52:46;;;;;;;10.15;6.18;;;24.40;36.60;;;;;;4960768;28;20058;-50
2023/07/04 11:55:17;;;;;;;12.63;6.95;;;24.50;36.50;;;;;;4960339;28;20059;-56
2023/07/04 11:58:06;;;;;;;10.20;5.90;;;24.50;36.20;;;;;;4961017;28;20042;-56
2023/07/04 12:01:05;;;;;;;13.07;6.05;;;24.50;36.10;;;;;;4957351;28;20065;-56
2023/07/04 12:04:00;;;;;;;10.93;5.57;;;24.60;36.20;;;;;;4960567;28;20050;-55
2023/07/04 12:06:53;;;;;;;12.18;5.57;;;24.60;36.40;;;;;;4958912;28;20053;-57
2023/07/04 12:09:30;;;;;;;13.10;5.35;;;24.70;36.50;;;;;;4960826;28;20063;-51
2023/07/04 12:12:02;;;;;;;11.40;5.47;;;24.70;35.90;;;;;;4959308;28;20051;-57
2023/07/04 12:14:32;;;;;;;8.07;5.03;;;24.80;36.50;;;;;;4959075;28;20506;-56
2023/07/04 12:17:00;;;;;;;12.18;5.65;;;24.80;36.30;;;;;;4962323;28;20055;-57
2023/07/04 12:19:27;;;;;;;10.20;5.80;;;24.80;36.20;;;;;;4958996;28;20070;-54
2023/07/04 12:21:56;;;;;;;10.40;5.20;;;24.80;36.20;;;;;;4956374;28;20058;-58
2023/07/04 12:24:25;;;;;;;11.18;5.38;;;24.90;36.60;;;;;;4961965;28;20054;-57
2023/07/04 12:26:54;;;;;;;8.45;4.70;;;24.90;36.40;;;;;;4957733;28;20058;-57
2023/07/04 12:29:22;;;;;;;7.15;4.72;;;24.90;36.50;;;;;;4959307;28;20517;-57
2023/07/04 12:32:03;;;;;;;11.52;6.18;;;25.00;36.50;;;;;;4957433;28;20124;-57
2023/07/04 12:34:30;;;;;;;11.85;6.07;;;25.00;36.30;;;;;;4955230;28;20059;-57
2023/07/04 12:37:02;;;;;;;10.85;5.90;;;25.00;36.10;;;;;;4957653;28;20054;-57
2023/07/04 12:39:29;;;;;;;8.15;5.13;;;25.00;36.40;;;;;;4958697;28;20058;-58
2023/07/04 12:41:57;;;;;;;8.60;5.13;;;25.00;36.00;;;;;;4957715;28;20430;-58
2023/07/04 12:44:25;;;;;;;9.30;5.43;;;25.10;36.20;;;;;;4959607;28;20503;-58
2023/07/04 12:46:54;;;;;;;10.25;5.10;;;25.10;35.90;;;;;;4961335;28;20431;-60
2023/07/04 12:49:22;;;;;;;11.13;5.35;;;25.10;36.50;;;;;;4958393;28;20058;-57
2023/07/04 12:51:49;;;;;;;11.57;6.38;;;25.20;36.40;;;;;;4956367;28;20450;-57
2023/07/04 12:54:17;;;;;;;8.68;5.38;;;25.20;36.20;;;;;;4961769;28;20058;-58
2023/07/04 12:56:47;;;;;;;11.10;5.72;;;25.20;36.20;;;;;;4957243;28;20527;-58